Flight Track Log - Related Links

Times and Time Zones

All times are in EDT time to prevent confusion due to time zone crossing. See the EGF3681 flight status page for this flight to view local times or setup timezone preferences in your user account.

Time Position Orientation Groundspeed Altitude Reporting Facility
EDT Latitude Longitude Course Direction KTS MPH feet Rate Location/Type
Mon 11:46:28 PM 42.0333 -87.9500 95° East 194 223 2,600  Level Chicago TRACON
Mon 11:47:28 PM 42.0833 -88.0000 323° Northwest 266 306 4,400 1,200 Climbing Chicago TRACON
Mon 11:48:00 PM 41.9667 -87.5500 90° East  Level FlightAware Approximate
Mon 11:48:28 PM 42.1000 -87.9333 71° East 241 277 5,000  Level Chicago TRACON
Mon 11:49:00 PM 41.9568 -87.4342 98° East  Level FlightAware Approximate
Mon 11:49:23 PM 42.1042 -87.8678 85° East 236 272 5,000  Level Chicago Center
Mon 11:50:00 PM 41.9466 -87.3184 95° East  Level FlightAware Approximate
Mon 11:50:23 PM 42.1022 -87.7792 92° East 236 272 5,100  Level Chicago Center
Mon 11:51:00 PM 41.9383 -87.2023 95° East  Level FlightAware Approximate
Mon 11:51:24 PM 42.0814 -87.6889 107° East 252 290 7,400  Level Chicago Center
Mon 11:52:25 PM 42.0611 -87.5986 107° East 253 291 9,800 2,262 Climbing Chicago Center
Mon 11:53:26 PM 42.0364 -87.4794 106° East 274 315 12,000 1,820 Climbing Chicago Center
Mon 11:54:27 PM 42.0133 -87.3742 106° East 290 334 13,500 1,475 Climbing Chicago Center
Mon 11:55:28 PM 41.9881 -87.2569 106° East 312 359 15,000 1,537 Climbing Chicago Center
Mon 11:56:28 PM 41.9614 -87.1361 106° East 330 380 16,600 1,537 Climbing Chicago Center
Mon 11:57:29 PM 41.9331 -87.0158 108° East 339 390 18,100 1,623 Climbing Chicago Center
Mon 11:58:30 PM 41.8617 -86.9278 137° Southeast 348 400 19,900 1,918 Climbing Chicago Center
Mon 11:59:31 PM 41.7964 -86.8361 134° Southeast 344 396 22,000 1,525 Climbing Chicago Center
Tue 12:00:32 AM 41.7328 -86.7433 133° Southeast 341 392 23,000 492 Climbing Chicago Center
Tue 12:01:33 AM 41.6594 -86.6372 133° Southeast 373 429 23,000  Level Chicago Center
Tue 12:02:33 AM 41.5806 -86.5236 133° Southeast 407 468 23,000  Level Chicago Center
Tue 12:03:34 AM 41.4983 -86.4086 134° Southeast 424 488 23,000  Level Chicago Center
Tue 12:04:35 AM 41.4158 -86.2922 133° Southeast 432 497 23,000  Level Chicago Center
Tue 12:05:36 AM 41.3353 -86.1775 133° Southeast 429 494 23,000  Level Chicago Center
Tue 12:06:36 AM 41.2369 -86.0392 133° Southeast 432 497 23,000  Level Chicago Center
Tue 12:07:37 AM 41.1567 -85.9264 133° Southeast 429 494 23,000 -295 Level Chicago Center
Tue 12:08:38 AM 41.0817 -85.8203 133° Southeast 410 472 22,400 -1,240 Descending Chicago Center
Tue 12:09:38 AM 41.0042 -85.7128 134° Southeast 406 467 20,500 -1,686 Descending Chicago Center
Tue 12:10:39 AM 40.9267 -85.6047 133° Southeast 408 470 19,000 -1,377 Descending Chicago Center
Tue 12:11:40 AM 40.8517 -85.5003 133° Southeast 400 460 17,700 -1,279 Descending Chicago Center
Tue 12:12:41 AM 40.7756 -85.3958 134° Southeast 398 458 16,400 -1,339 Descending Chicago Center
Tue 12:13:41 AM 40.7006 -85.2925 134° Southeast 394 453 15,000 -1,438 Descending Chicago Center
Tue 12:14:42 AM 40.6250 -85.1883 134° Southeast 370 426 13,500 -1,385 Descending Chicago Center
Tue 12:15:38 AM 40.5639 -85.1086 135° Southeast 376 433 12,300 -1,282 Descending Indianapolis Center
Tue 12:16:39 AM 40.4936 -85.0119 134° Southeast 369 425 11,000 -694 Descending Indianapolis Center
Tue 12:17:39 AM 40.4236 -84.9175 134° Southeast 364 419 10,900 -50 Descending Indianapolis Center
Tue 12:18:40 AM 40.3508 -84.8200 134° Southeast 359 413 10,900 -443 Level Indianapolis Center
Tue 12:19:41 AM 40.2767 -84.7547 146° Southeast 319 367 10,000 -1,289 Descending Indianapolis Center
Tue 12:20:41 AM 40.2136 -84.6967 145° Southeast 288 331 8,300 -1,736 Descending Indianapolis Center
Tue 12:21:42 AM 40.1536 -84.6419 145° Southeast 269 310 6,500 -1,770 Descending Indianapolis Center
Tue 12:22:43 AM 40.0939 -84.5900 146° Southeast 259 298 4,700 -1,289 Descending Indianapolis Center
Tue 12:23:43 AM 40.0361 -84.5425 148° Southeast 251 289 3,900 -397 Descending Indianapolis Center
Tue 12:24:44 AM 39.9717 -84.5094 159° South 246 283 3,900 -148 Level Indianapolis Center
Tue 12:25:45 AM 39.8958 -84.4689 158° South 248 285 3,600 -496 Descending Indianapolis Center
Tue 12:26:45 AM 39.8297 -84.4353 159° South 251 289 2,900 -700 Descending Indianapolis Center

Login

Don't have an account? Register now (free) for customized features, flight alerts, and more!